sensor_id;sensor_type;location;lat;lon;timestamp;P1;durP1;ratioP1;P2;durP2;ratioP2
19456;SDS011;9867;48.094;11.478;2023-08-01T00:01:25;3.57;;;2.70;;
19456;SDS011;9867;48.094;11.478;2023-08-01T00:03:53;2.90;;;2.70;;
19456;SDS011;9867;48.094;11.478;2023-08-01T00:06:21;4.70;;;2.70;;
19456;SDS011;9867;48.094;11.478;2023-08-01T00:08:55;3.20;;;2.90;;
19456;SDS011;9867;48.094;11.478;2023-08-01T00:11:27;3.60;;;2.60;;
19456;SDS011;9867;48.094;11.478;2023-08-01T00:14:01;3.93;;;2.70;;
19456;SDS011;9867;48.094;11.478;2023-08-01T00:16:29;3.17;;;2.83;;
19456;SDS011;9867;48.094;11.478;2023-08-01T00:18:58;5.03;;;3.10;;
19456;SDS011;9867;48.094;11.478;2023-08-01T00:21:26;2.97;;;2.70;;
19456;SDS011;9867;48.094;11.478;2023-08-01T00:23:57;3.10;;;2.80;;
19456;SDS011;9867;48.094;11.478;2023-08-01T00:26:25;3.17;;;2.60;;
19456;SDS011;9867;48.094;11.478;2023-08-01T00:28:54;2.97;;;2.53;;
19456;SDS011;9867;48.094;11.478;2023-08-01T00:31:22;3.20;;;2.70;;
19456;SDS011;9867;48.094;11.478;2023-08-01T00:33:50;2.97;;;2.77;;
19456;SDS011;9867;48.094;11.478;2023-08-01T00:36:18;2.90;;;2.60;;
19456;SDS011;9867;48.094;11.478;2023-08-01T00:38:46;2.70;;;2.50;;
19456;SDS011;9867;48.094;11.478;2023-08-01T00:41:18;3.10;;;2.77;;
19456;SDS011;9867;48.094;11.478;2023-08-01T00:43:46;3.17;;;2.73;;
19456;SDS011;9867;48.094;11.478;2023-08-01T00:46:15;4.43;;;2.77;;
19456;SDS011;9867;48.094;11.478;2023-08-01T00:48:44;3.07;;;2.77;;
19456;SDS011;9867;48.094;11.478;2023-08-01T00:51:13;5.97;;;2.80;;
19456;SDS011;9867;48.094;11.478;2023-08-01T00:53:44;5.07;;;3.13;;
19456;SDS011;9867;48.094;11.478;2023-08-01T00:56:13;5.70;;;2.70;;
19456;SDS011;9867;48.094;11.478;2023-08-01T00:58:41;3.30;;;3.00;;
19456;SDS011;9867;48.094;11.478;2023-08-01T01:01:09;3.43;;;2.80;;
19456;SDS011;9867;48.094;11.478;2023-08-01T01:03:38;3.17;;;2.90;;
19456;SDS011;9867;48.094;11.478;2023-08-01T01:06:09;4.17;;;2.87;;
19456;SDS011;9867;48.094;11.478;2023-08-01T01:08:42;3.00;;;2.77;;
19456;SDS011;9867;48.094;11.478;2023-08-01T01:11:11;3.13;;;2.83;;
19456;SDS011;9867;48.094;11.478;2023-08-01T01:13:39;5.67;;;3.20;;
19456;SDS011;9867;48.094;11.478;2023-08-01T01:16:08;2.93;;;2.70;;
19456;SDS011;9867;48.094;11.478;2023-08-01T01:18:36;3.47;;;3.17;;
19456;SDS011;9867;48.094;11.478;2023-08-01T01:21:05;2.93;;;2.70;;
19456;SDS011;9867;48.094;11.478;2023-08-01T01:23:51;3.70;;;3.07;;
19456;SDS011;9867;48.094;11.478;2023-08-01T01:26:20;4.50;;;2.70;;
19456;SDS011;9867;48.094;11.478;2023-08-01T01:28:48;3.33;;;2.97;;
19456;SDS011;9867;48.094;11.478;2023-08-01T01:31:18;3.47;;;2.80;;
19456;SDS011;9867;48.094;11.478;2023-08-01T01:33:47;3.63;;;2.73;;
19456;SDS011;9867;48.094;11.478;2023-08-01T01:36:17;3.77;;;2.90;;
19456;SDS011;9867;48.094;11.478;2023-08-01T01:38:45;2.67;;;2.47;;
19456;SDS011;9867;48.094;11.478;2023-08-01T01:41:13;3.00;;;2.80;;
19456;SDS011;9867;48.094;11.478;2023-08-01T01:43:41;3.07;;;2.83;;
19456;SDS011;9867;48.094;11.478;2023-08-01T01:46:11;4.33;;;3.23;;
19456;SDS011;9867;48.094;11.478;2023-08-01T01:48:39;4.87;;;3.50;;
19456;SDS011;9867;48.094;11.478;2023-08-01T01:51:08;3.43;;;2.80;;
19456;SDS011;9867;48.094;11.478;2023-08-01T01:53:38;4.27;;;3.07;;
19456;SDS011;9867;48.094;11.478;2023-08-01T01:56:06;7.17;;;3.00;;
19456;SDS011;9867;48.094;11.478;2023-08-01T01:58:35;3.57;;;3.03;;
19456;SDS011;9867;48.094;11.478;2023-08-01T02:01:03;3.30;;;3.00;;
19456;SDS011;9867;48.094;11.478;2023-08-01T02:03:31;3.37;;;3.00;;
19456;SDS011;9867;48.094;11.478;2023-08-01T02:05:59;3.60;;;3.20;;
19456;SDS011;9867;48.094;11.478;2023-08-01T02:08:27;3.63;;;3.30;;
19456;SDS011;9867;48.094;11.478;2023-08-01T02:11:04;3.47;;;3.17;;
19456;SDS011;9867;48.094;11.478;2023-08-01T02:13:32;3.43;;;3.13;;
19456;SDS011;9867;48.094;11.478;2023-08-01T02:16:01;5.67;;;3.37;;
19456;SDS011;9867;48.094;11.478;2023-08-01T02:18:29;4.37;;;3.13;;
19456;SDS011;9867;48.094;11.478;2023-08-01T02:21:06;5.40;;;3.20;;
19456;SDS011;9867;48.094;11.478;2023-08-01T02:23:34;3.20;;;2.87;;
19456;SDS011;9867;48.094;11.478;2023-08-01T02:26:05;3.53;;;3.17;;
19456;SDS011;9867;48.094;11.478;2023-08-01T02:28:34;3.33;;;2.93;;
19456;SDS011;9867;48.094;11.478;2023-08-01T02:31:02;3.57;;;3.00;;
19456;SDS011;9867;48.094;11.478;2023-08-01T02:33:31;3.10;;;2.80;;
19456;SDS011;9867;48.094;11.478;2023-08-01T02:36:00;3.20;;;2.90;;
19456;SDS011;9867;48.094;11.478;2023-08-01T02:38:28;4.40;;;3.03;;
19456;SDS011;9867;48.094;11.478;2023-08-01T02:40:56;4.27;;;3.00;;
19456;SDS011;9867;48.094;11.478;2023-08-01T02:43:26;4.53;;;2.73;;
19456;SDS011;9867;48.094;11.478;2023-08-01T02:45:54;3.60;;;3.30;;
19456;SDS011;9867;48.094;11.478;2023-08-01T02:48:22;5.10;;;3.30;;
19456;SDS011;9867;48.094;11.478;2023-08-01T02:50:50;3.20;;;2.90;;
19456;SDS011;9867;48.094;11.478;2023-08-01T02:53:18;4.40;;;3.03;;
19456;SDS011;9867;48.094;11.478;2023-08-01T02:55:46;3.80;;;3.27;;
19456;SDS011;9867;48.094;11.478;2023-08-01T02:58:14;4.03;;;3.10;;
19456;SDS011;9867;48.094;11.478;2023-08-01T03:00:44;3.10;;;2.80;;
19456;SDS011;9867;48.094;11.478;2023-08-01T03:03:14;4.03;;;3.07;;
19456;SDS011;9867;48.094;11.478;2023-08-01T03:05:42;5.97;;;3.03;;
19456;SDS011;9867;48.094;11.478;2023-08-01T03:08:10;4.30;;;3.03;;
19456;SDS011;9867;48.094;11.478;2023-08-01T03:10:39;3.83;;;3.10;;
19456;SDS011;9867;48.094;11.478;2023-08-01T03:13:07;3.10;;;2.87;;
19456;SDS011;9867;48.094;11.478;2023-08-01T03:15:36;4.53;;;3.30;;
19456;SDS011;9867;48.094;11.478;2023-08-01T03:18:06;3.50;;;3.00;;
19456;SDS011;9867;48.094;11.478;2023-08-01T03:20:34;4.03;;;3.17;;
19456;SDS011;9867;48.094;11.478;2023-08-01T03:23:02;4.27;;;3.30;;
19456;SDS011;9867;48.094;11.478;2023-08-01T03:25:31;4.33;;;3.50;;
19456;SDS011;9867;48.094;11.478;2023-08-01T03:27:59;4.83;;;3.20;;
19456;SDS011;9867;48.094;11.478;2023-08-01T03:30:27;5.63;;;3.20;;
19456;SDS011;9867;48.094;11.478;2023-08-01T03:32:55;3.87;;;3.20;;
19456;SDS011;9867;48.094;11.478;2023-08-01T03:35:25;3.47;;;3.17;;
19456;SDS011;9867;48.094;11.478;2023-08-01T03:37:53;5.13;;;3.60;;
19456;SDS011;9867;48.094;11.478;2023-08-01T03:40:21;4.87;;;3.50;;
19456;SDS011;9867;48.094;11.478;2023-08-01T03:42:49;4.20;;;3.47;;
19456;SDS011;9867;48.094;11.478;2023-08-01T03:45:18;6.50;;;3.03;;
19456;SDS011;9867;48.094;11.478;2023-08-01T03:47:46;4.83;;;3.30;;
19456;SDS011;9867;48.094;11.478;2023-08-01T03:50:14;5.13;;;3.00;;
19456;SDS011;9867;48.094;11.478;2023-08-01T03:52:44;4.43;;;3.00;;
19456;SDS011;9867;48.094;11.478;2023-08-01T03:55:12;3.97;;;3.30;;
19456;SDS011;9867;48.094;11.478;2023-08-01T03:57:41;3.70;;;3.40;;
19456;SDS011;9867;48.094;11.478;2023-08-01T04:00:09;3.83;;;3.17;;
19456;SDS011;9867;48.094;11.478;2023-08-01T04:02:40;4.53;;;3.37;;
19456;SDS011;9867;48.094;11.478;2023-08-01T04:05:13;3.67;;;3.37;;
19456;SDS011;9867;48.094;11.478;2023-08-01T04:07:41;3.43;;;3.10;;
19456;SDS011;9867;48.094;11.478;2023-08-01T04:10:10;4.73;;;3.50;;
19456;SDS011;9867;48.094;11.478;2023-08-01T04:12:40;8.73;;;3.70;;
19456;SDS011;9867;48.094;11.478;2023-08-01T04:15:09;4.60;;;4.10;;
19456;SDS011;9867;48.094;11.478;2023-08-01T04:17:37;5.70;;;3.73;;
19456;SDS011;9867;48.094;11.478;2023-08-01T04:20:06;6.87;;;3.53;;
19456;SDS011;9867;48.094;11.478;2023-08-01T04:22:34;5.50;;;3.50;;
19456;SDS011;9867;48.094;11.478;2023-08-01T04:25:02;6.70;;;3.90;;
19456;SDS011;9867;48.094;11.478;2023-08-01T04:27:32;5.40;;;3.90;;
19456;SDS011;9867;48.094;11.478;2023-08-01T04:30:00;7.27;;;4.10;;
19456;SDS011;9867;48.094;11.478;2023-08-01T04:32:29;4.23;;;3.80;;
19456;SDS011;9867;48.094;11.478;2023-08-01T04:34:57;6.03;;;4.43;;
19456;SDS011;9867;48.094;11.478;2023-08-01T04:37:25;4.13;;;3.83;;
19456;SDS011;9867;48.094;11.478;2023-08-01T04:39:53;5.00;;;3.90;;
19456;SDS011;9867;48.094;11.478;2023-08-01T04:42:20;5.67;;;3.90;;
19456;SDS011;9867;48.094;11.478;2023-08-01T04:44:50;4.77;;;4.00;;
19456;SDS011;9867;48.094;11.478;2023-08-01T04:47:18;5.00;;;3.73;;
19456;SDS011;9867;48.094;11.478;2023-08-01T04:49:46;7.70;;;4.93;;
19456;SDS011;9867;48.094;11.478;2023-08-01T04:52:14;7.07;;;4.23;;
19456;SDS011;9867;48.094;11.478;2023-08-01T04:54:42;4.83;;;3.87;;
19456;SDS011;9867;48.094;11.478;2023-08-01T04:57:10;4.40;;;4.00;;
19456;SDS011;9867;48.094;11.478;2023-08-01T04:59:38;4.93;;;4.17;;
19456;SDS011;9867;48.094;11.478;2023-08-01T05:02:08;6.27;;;4.20;;
19456;SDS011;9867;48.094;11.478;2023-08-01T05:04:35;5.90;;;4.30;;
19456;SDS011;9867;48.094;11.478;2023-08-01T05:07:04;5.30;;;4.27;;
19456;SDS011;9867;48.094;11.478;2023-08-01T05:09:33;4.60;;;4.20;;
19456;SDS011;9867;48.094;11.478;2023-08-01T05:12:01;5.03;;;4.40;;
19456;SDS011;9867;48.094;11.478;2023-08-01T05:14:29;5.93;;;4.40;;
19456;SDS011;9867;48.094;11.478;2023-08-01T05:16:57;5.93;;;4.17;;
19456;SDS011;9867;48.094;11.478;2023-08-01T05:19:27;4.70;;;4.20;;
19456;SDS011;9867;48.094;11.478;2023-08-01T05:21:55;4.67;;;4.23;;
19456;SDS011;9867;48.094;11.478;2023-08-01T05:24:23;6.00;;;4.40;;
19456;SDS011;9867;48.094;11.478;2023-08-01T05:26:51;5.63;;;4.50;;
19456;SDS011;9867;48.094;11.478;2023-08-01T05:29:18;4.90;;;4.43;;
19456;SDS011;9867;48.094;11.478;2023-08-01T05:31:46;5.77;;;4.67;;
19456;SDS011;9867;48.094;11.478;2023-08-01T05:34:14;5.10;;;4.20;;
19456;SDS011;9867;48.094;11.478;2023-08-01T05:36:46;6.00;;;4.10;;
19456;SDS011;9867;48.094;11.478;2023-08-01T05:39:15;4.90;;;4.37;;
19456;SDS011;9867;48.094;11.478;2023-08-01T05:41:43;5.67;;;4.70;;
19456;SDS011;9867;48.094;11.478;2023-08-01T05:44:11;4.27;;;3.87;;
19456;SDS011;9867;48.094;11.478;2023-08-01T05:46:39;4.50;;;4.10;;
19456;SDS011;9867;48.094;11.478;2023-08-01T05:49:07;6.20;;;4.50;;
19456;SDS011;9867;48.094;11.478;2023-08-01T05:51:35;4.90;;;4.10;;
19456;SDS011;9867;48.094;11.478;2023-08-01T05:54:04;4.77;;;3.90;;
19456;SDS011;9867;48.094;11.478;2023-08-01T05:56:32;5.00;;;4.17;;
19456;SDS011;9867;48.094;11.478;2023-08-01T05:59:00;4.77;;;4.27;;
19456;SDS011;9867;48.094;11.478;2023-08-01T06:01:30;4.57;;;4.00;;
19456;SDS011;9867;48.094;11.478;2023-08-01T06:03:58;6.20;;;4.03;;
19456;SDS011;9867;48.094;11.478;2023-08-01T06:06:29;5.40;;;4.17;;
19456;SDS011;9867;48.094;11.478;2023-08-01T06:08:57;5.77;;;4.43;;
19456;SDS011;9867;48.094;11.478;2023-08-01T06:11:26;6.27;;;4.17;;
19456;SDS011;9867;48.094;11.478;2023-08-01T06:13:54;5.27;;;4.27;;
19456;SDS011;9867;48.094;11.478;2023-08-01T06:16:22;7.73;;;3.87;;
19456;SDS011;9867;48.094;11.478;2023-08-01T06:18:53;5.93;;;4.33;;
19456;SDS011;9867;48.094;11.478;2023-08-01T06:21:21;4.63;;;4.13;;
19456;SDS011;9867;48.094;11.478;2023-08-01T06:23:49;5.40;;;4.00;;
19456;SDS011;9867;48.094;11.478;2023-08-01T06:26:17;4.63;;;4.10;;
19456;SDS011;9867;48.094;11.478;2023-08-01T06:28:47;4.27;;;3.57;;
19456;SDS011;9867;48.094;11.478;2023-08-01T06:31:17;4.77;;;4.10;;
19456;SDS011;9867;48.094;11.478;2023-08-01T06:33:48;5.00;;;3.80;;
19456;SDS011;9867;48.094;11.478;2023-08-01T06:36:16;4.37;;;3.67;;
19456;SDS011;9867;48.094;11.478;2023-08-01T06:38:45;3.90;;;3.50;;
19456;SDS011;9867;48.094;11.478;2023-08-01T06:41:13;3.77;;;3.33;;
19456;SDS011;9867;48.094;11.478;2023-08-01T06:43:42;4.60;;;3.60;;
19456;SDS011;9867;48.094;11.478;2023-08-01T06:46:11;4.40;;;3.73;;
19456;SDS011;9867;48.094;11.478;2023-08-01T06:48:39;3.77;;;3.23;;
19456;SDS011;9867;48.094;11.478;2023-08-01T06:51:07;6.17;;;3.60;;
19456;SDS011;9867;48.094;11.478;2023-08-01T06:53:35;4.03;;;3.50;;
19456;SDS011;9867;48.094;11.478;2023-08-01T06:56:03;3.63;;;3.10;;
19456;SDS011;9867;48.094;11.478;2023-08-01T06:58:31;3.70;;;3.30;;
19456;SDS011;9867;48.094;11.478;2023-08-01T07:00:59;4.30;;;3.40;;
19456;SDS011;9867;48.094;11.478;2023-08-01T07:03:28;4.13;;;3.03;;
19456;SDS011;9867;48.094;11.478;2023-08-01T07:05:56;3.63;;;3.27;;
19456;SDS011;9867;48.094;11.478;2023-08-01T07:08:24;3.60;;;3.30;;
19456;SDS011;9867;48.094;11.478;2023-08-01T07:10:52;3.60;;;3.23;;
19456;SDS011;9867;48.094;11.478;2023-08-01T07:13:20;3.63;;;3.33;;
19456;SDS011;9867;48.094;11.478;2023-08-01T07:15:49;3.77;;;3.17;;
19456;SDS011;9867;48.094;11.478;2023-08-01T07:18:17;3.60;;;3.13;;
19456;SDS011;9867;48.094;11.478;2023-08-01T07:20:46;5.10;;;3.10;;
19456;SDS011;9867;48.094;11.478;2023-08-01T07:23:14;4.87;;;3.97;;
19456;SDS011;9867;48.094;11.478;2023-08-01T07:25:42;4.10;;;3.70;;
19456;SDS011;9867;48.094;11.478;2023-08-01T07:28:10;3.20;;;2.87;;
19456;SDS011;9867;48.094;11.478;2023-08-01T07:30:38;3.93;;;3.20;;
19456;SDS011;9867;48.094;11.478;2023-08-01T07:33:06;4.60;;;2.97;;
19456;SDS011;9867;48.094;11.478;2023-08-01T07:35:34;5.50;;;3.40;;
19456;SDS011;9867;48.094;11.478;2023-08-01T07:38:03;4.77;;;3.23;;
19456;SDS011;9867;48.094;11.478;2023-08-01T07:40:31;6.63;;;3.33;;
19456;SDS011;9867;48.094;11.478;2023-08-01T07:42:59;3.83;;;3.30;;
19456;SDS011;9867;48.094;11.478;2023-08-01T07:45:27;3.43;;;3.13;;
19456;SDS011;9867;48.094;11.478;2023-08-01T07:47:55;6.87;;;3.33;;
19456;SDS011;9867;48.094;11.478;2023-08-01T07:50:23;3.97;;;3.40;;
19456;SDS011;9867;48.094;11.478;2023-08-01T07:52:51;5.60;;;3.30;;
19456;SDS011;9867;48.094;11.478;2023-08-01T07:55:20;4.77;;;3.10;;
19456;SDS011;9867;48.094;11.478;2023-08-01T07:57:48;4.00;;;3.17;;
19456;SDS011;9867;48.094;11.478;2023-08-01T08:00:17;4.40;;;3.77;;
19456;SDS011;9867;48.094;11.478;2023-08-01T08:02:45;4.23;;;3.60;;
19456;SDS011;9867;48.094;11.478;2023-08-01T08:05:13;4.23;;;3.40;;
19456;SDS011;9867;48.094;11.478;2023-08-01T08:07:41;4.53;;;3.13;;
19456;SDS011;9867;48.094;11.478;2023-08-01T08:10:09;3.43;;;3.13;;
19456;SDS011;9867;48.094;11.478;2023-08-01T08:12:39;3.90;;;3.27;;
19456;SDS011;9867;48.094;11.478;2023-08-01T08:15:07;5.30;;;4.03;;
19456;SDS011;9867;48.094;11.478;2023-08-01T08:17:35;3.67;;;3.37;;
19456;SDS011;9867;48.094;11.478;2023-08-01T08:20:04;3.97;;;3.57;;
19456;SDS011;9867;48.094;11.478;2023-08-01T08:22:32;4.10;;;3.50;;
19456;SDS011;9867;48.094;11.478;2023-08-01T08:25:00;5.00;;;3.57;;
19456;SDS011;9867;48.094;11.478;2023-08-01T08:27:28;4.90;;;3.37;;
19456;SDS011;9867;48.094;11.478;2023-08-01T08:29:58;5.30;;;3.20;;
19456;SDS011;9867;48.094;11.478;2023-08-01T08:32:25;4.10;;;3.70;;
19456;SDS011;9867;48.094;11.478;2023-08-01T08:34:54;3.63;;;3.30;;
19456;SDS011;9867;48.094;11.478;2023-08-01T08:37:21;4.67;;;3.47;;
19456;SDS011;9867;48.094;11.478;2023-08-01T08:39:49;3.80;;;3.40;;
19456;SDS011;9867;48.094;11.478;2023-08-01T08:42:17;3.83;;;3.40;;
19456;SDS011;9867;48.094;11.478;2023-08-01T08:44:45;5.17;;;3.30;;
19456;SDS011;9867;48.094;11.478;2023-08-01T08:47:18;6.00;;;3.53;;
19456;SDS011;9867;48.094;11.478;2023-08-01T08:49:52;4.23;;;3.47;;
19456;SDS011;9867;48.094;11.478;2023-08-01T08:52:23;4.07;;;3.60;;
19456;SDS011;9867;48.094;11.478;2023-08-01T08:54:52;3.80;;;3.40;;
19456;SDS011;9867;48.094;11.478;2023-08-01T08:57:20;3.67;;;3.37;;
19456;SDS011;9867;48.094;11.478;2023-08-01T08:59:49;3.80;;;3.33;;
19456;SDS011;9867;48.094;11.478;2023-08-01T09:02:18;4.10;;;3.63;;
19456;SDS011;9867;48.094;11.478;2023-08-01T09:04:48;6.37;;;3.67;;
19456;SDS011;9867;48.094;11.478;2023-08-01T09:07:16;8.13;;;3.60;;
19456;SDS011;9867;48.094;11.478;2023-08-01T09:09:47;4.27;;;3.70;;
19456;SDS011;9867;48.094;11.478;2023-08-01T09:12:15;4.57;;;3.57;;
19456;SDS011;9867;48.094;11.478;2023-08-01T09:14:43;5.03;;;4.20;;
19456;SDS011;9867;48.094;11.478;2023-08-01T09:17:13;4.10;;;3.80;;
19456;SDS011;9867;48.094;11.478;2023-08-01T09:19:44;4.87;;;4.33;;
19456;SDS011;9867;48.094;11.478;2023-08-01T09:22:12;4.23;;;3.83;;
19456;SDS011;9867;48.094;11.478;2023-08-01T09:24:50;3.97;;;3.57;;
19456;SDS011;9867;48.094;11.478;2023-08-01T09:27:20;5.47;;;3.90;;
19456;SDS011;9867;48.094;11.478;2023-08-01T09:29:49;4.37;;;3.97;;
19456;SDS011;9867;48.094;11.478;2023-08-01T09:32:17;7.07;;;4.13;;
19456;SDS011;9867;48.094;11.478;2023-08-01T09:34:46;4.77;;;3.60;;
19456;SDS011;9867;48.094;11.478;2023-08-01T09:37:14;4.27;;;3.87;;
19456;SDS011;9867;48.094;11.478;2023-08-01T09:39:42;6.03;;;4.80;;
19456;SDS011;9867;48.094;11.478;2023-08-01T09:42:13;5.77;;;4.77;;
19456;SDS011;9867;48.094;11.478;2023-08-01T09:44:44;5.27;;;3.87;;
19456;SDS011;9867;48.094;11.478;2023-08-01T09:47:13;4.57;;;4.17;;
19456;SDS011;9867;48.094;11.478;2023-08-01T09:49:48;6.03;;;4.30;;
19456;SDS011;9867;48.094;11.478;2023-08-01T09:52:26;5.23;;;3.97;;
19456;SDS011;9867;48.094;11.478;2023-08-01T09:54:54;4.87;;;3.57;;
19456;SDS011;9867;48.094;11.478;2023-08-01T09:57:22;4.37;;;3.80;;
19456;SDS011;9867;48.094;11.478;2023-08-01T09:59:54;5.20;;;3.73;;
19456;SDS011;9867;48.094;11.478;2023-08-01T10:02:24;4.33;;;3.50;;
19456;SDS011;9867;48.094;11.478;2023-08-01T10:04:54;4.33;;;3.60;;
19456;SDS011;9867;48.094;11.478;2023-08-01T10:07:25;4.03;;;3.70;;
19456;SDS011;9867;48.094;11.478;2023-08-01T10:09:57;4.33;;;3.50;;
19456;SDS011;9867;48.094;11.478;2023-08-01T10:12:27;4.63;;;3.53;;
19456;SDS011;9867;48.094;11.478;2023-08-01T10:14:55;3.37;;;2.93;;
19456;SDS011;9867;48.094;11.478;2023-08-01T10:17:23;3.83;;;3.37;;
19456;SDS011;9867;48.094;11.478;2023-08-01T10:19:55;4.57;;;3.73;;
19456;SDS011;9867;48.094;11.478;2023-08-01T10:22:24;6.30;;;3.70;;
19456;SDS011;9867;48.094;11.478;2023-08-01T10:24:53;4.40;;;3.40;;
19456;SDS011;9867;48.094;11.478;2023-08-01T10:27:22;6.77;;;3.80;;
19456;SDS011;9867;48.094;11.478;2023-08-01T10:29:56;4.60;;;3.47;;
19456;SDS011;9867;48.094;11.478;2023-08-01T10:32:31;3.43;;;2.77;;
19456;SDS011;9867;48.094;11.478;2023-08-01T10:35:02;4.13;;;3.57;;
19456;SDS011;9867;48.094;11.478;2023-08-01T10:40:17;3.90;;;3.53;;
19456;SDS011;9867;48.094;11.478;2023-08-01T10:42:45;3.17;;;2.87;;
19456;SDS011;9867;48.094;11.478;2023-08-01T10:45:20;4.47;;;3.47;;
19456;SDS011;9867;48.094;11.478;2023-08-01T10:47:49;4.00;;;3.10;;
19456;SDS011;9867;48.094;11.478;2023-08-01T10:50:19;3.73;;;3.20;;
19456;SDS011;9867;48.094;11.478;2023-08-01T10:52:47;5.03;;;3.50;;
19456;SDS011;9867;48.094;11.478;2023-08-01T10:55:15;3.40;;;3.10;;
19456;SDS011;9867;48.094;11.478;2023-08-01T10:57:46;4.00;;;3.60;;
19456;SDS011;9867;48.094;11.478;2023-08-01T11:00:16;3.80;;;3.50;;
19456;SDS011;9867;48.094;11.478;2023-08-01T11:02:49;4.13;;;3.30;;
19456;SDS011;9867;48.094;11.478;2023-08-01T11:05:19;4.37;;;3.40;;
19456;SDS011;9867;48.094;11.478;2023-08-01T11:07:53;4.60;;;3.00;;
19456;SDS011;9867;48.094;11.478;2023-08-01T11:10:24;3.00;;;2.77;;
19456;SDS011;9867;48.094;11.478;2023-08-01T11:12:53;3.10;;;2.80;;
19456;SDS011;9867;48.094;11.478;2023-08-01T11:15:21;2.80;;;2.33;;
19456;SDS011;9867;48.094;11.478;2023-08-01T11:17:50;2.30;;;2.10;;
19456;SDS011;9867;48.094;11.478;2023-08-01T11:20:22;2.93;;;2.73;;
19456;SDS011;9867;48.094;11.478;2023-08-01T11:22:52;3.07;;;2.70;;
19456;SDS011;9867;48.094;11.478;2023-08-01T11:25:35;2.97;;;2.50;;
19456;SDS011;9867;48.094;11.478;2023-08-01T11:28:08;4.07;;;2.63;;
19456;SDS011;9867;48.094;11.478;2023-08-01T11:30:37;2.77;;;2.57;;
19456;SDS011;9867;48.094;11.478;2023-08-01T11:33:15;3.90;;;2.57;;
19456;SDS011;9867;48.094;11.478;2023-08-01T11:35:45;3.03;;;2.80;;
19456;SDS011;9867;48.094;11.478;2023-08-01T11:38:13;3.27;;;2.90;;
19456;SDS011;9867;48.094;11.478;2023-08-01T11:40:41;2.90;;;2.70;;
19456;SDS011;9867;48.094;11.478;2023-08-01T11:43:10;2.80;;;2.60;;
19456;SDS011;9867;48.094;11.478;2023-08-01T11:45:47;3.57;;;3.27;;
19456;SDS011;9867;48.094;11.478;2023-08-01T11:48:16;3.10;;;2.80;;
19456;SDS011;9867;48.094;11.478;2023-08-01T11:50:46;3.00;;;2.80;;
19456;SDS011;9867;48.094;11.478;2023-08-01T11:53:18;4.30;;;3.30;;
19456;SDS011;9867;48.094;11.478;2023-08-01T11:55:47;3.03;;;2.80;;
19456;SDS011;9867;48.094;11.478;2023-08-01T11:58:15;3.40;;;3.10;;
19456;SDS011;9867;48.094;11.478;2023-08-01T12:00:43;4.00;;;2.90;;
19456;SDS011;9867;48.094;11.478;2023-08-01T12:03:11;3.20;;;2.90;;
19456;SDS011;9867;48.094;11.478;2023-08-01T12:05:40;3.97;;;3.00;;
19456;SDS011;9867;48.094;11.478;2023-08-01T12:08:14;3.30;;;3.00;;
19456;SDS011;9867;48.094;11.478;2023-08-01T12:10:43;3.00;;;2.80;;
19456;SDS011;9867;48.094;11.478;2023-08-01T12:13:21;3.73;;;2.70;;
19456;SDS011;9867;48.094;11.478;2023-08-01T12:15:50;2.80;;;2.60;;
19456;SDS011;9867;48.094;11.478;2023-08-01T12:18:19;3.00;;;2.63;;
19456;SDS011;9867;48.094;11.478;2023-08-01T12:21:08;2.70;;;2.50;;
19456;SDS011;9867;48.094;11.478;2023-08-01T12:23:38;2.70;;;2.50;;
19456;SDS011;9867;48.094;11.478;2023-08-01T12:26:07;3.37;;;2.90;;
19456;SDS011;9867;48.094;11.478;2023-08-01T12:28:36;2.67;;;2.47;;
19456;SDS011;9867;48.094;11.478;2023-08-01T12:31:04;2.93;;;2.67;;
19456;SDS011;9867;48.094;11.478;2023-08-01T12:33:32;3.67;;;2.87;;
19456;SDS011;9867;48.094;11.478;2023-08-01T12:36:00;2.83;;;2.63;;
19456;SDS011;9867;48.094;11.478;2023-08-01T12:38:29;3.17;;;2.57;;
19456;SDS011;9867;48.094;11.478;2023-08-01T12:41:00;2.00;;;1.90;;
19456;SDS011;9867;48.094;11.478;2023-08-01T12:43:29;3.10;;;2.43;;
19456;SDS011;9867;48.094;11.478;2023-08-01T12:45:57;3.57;;;2.43;;
19456;SDS011;9867;48.094;11.478;2023-08-01T12:48:25;2.50;;;2.30;;
19456;SDS011;9867;48.094;11.478;2023-08-01T12:50:53;2.13;;;2.00;;
19456;SDS011;9867;48.094;11.478;2023-08-01T12:53:21;3.13;;;2.43;;
19456;SDS011;9867;48.094;11.478;2023-08-01T12:55:54;3.43;;;2.60;;
19456;SDS011;9867;48.094;11.478;2023-08-01T12:58:24;3.23;;;2.80;;
19456;SDS011;9867;48.094;11.478;2023-08-01T13:00:52;2.90;;;2.70;;
19456;SDS011;9867;48.094;11.478;2023-08-01T13:03:20;2.60;;;2.40;;
19456;SDS011;9867;48.094;11.478;2023-08-01T13:05:48;2.80;;;2.37;;
19456;SDS011;9867;48.094;11.478;2023-08-01T13:08:15;5.03;;;2.40;;
19456;SDS011;9867;48.094;11.478;2023-08-01T13:10:43;2.20;;;2.10;;
19456;SDS011;9867;48.094;11.478;2023-08-01T13:13:12;2.50;;;2.27;;
19456;SDS011;9867;48.094;11.478;2023-08-01T13:15:42;2.40;;;2.20;;
19456;SDS011;9867;48.094;11.478;2023-08-01T13:18:10;2.70;;;2.40;;
19456;SDS011;9867;48.094;11.478;2023-08-01T13:20:38;2.63;;;2.40;;
19456;SDS011;9867;48.094;11.478;2023-08-01T13:23:06;3.10;;;2.50;;
19456;SDS011;9867;48.094;11.478;2023-08-01T13:25:34;2.80;;;2.60;;
19456;SDS011;9867;48.094;11.478;2023-08-01T13:28:03;2.50;;;2.30;;
19456;SDS011;9867;48.094;11.478;2023-08-01T13:30:31;2.50;;;2.30;;
19456;SDS011;9867;48.094;11.478;2023-08-01T13:33:01;2.80;;;2.43;;
19456;SDS011;9867;48.094;11.478;2023-08-01T13:35:29;2.87;;;2.67;;
19456;SDS011;9867;48.094;11.478;2023-08-01T13:37:57;2.60;;;2.40;;
19456;SDS011;9867;48.094;11.478;2023-08-01T13:40:25;3.90;;;2.80;;
19456;SDS011;9867;48.094;11.478;2023-08-01T13:42:53;3.50;;;2.80;;
19456;SDS011;9867;48.094;11.478;2023-08-01T13:45:21;2.37;;;2.17;;
19456;SDS011;9867;48.094;11.478;2023-08-01T13:47:49;2.60;;;2.40;;
19456;SDS011;9867;48.094;11.478;2023-08-01T13:50:19;2.37;;;2.17;;
19456;SDS011;9867;48.094;11.478;2023-08-01T13:52:47;3.30;;;2.30;;
19456;SDS011;9867;48.094;11.478;2023-08-01T13:55:16;2.80;;;2.60;;
19456;SDS011;9867;48.094;11.478;2023-08-01T13:57:45;3.30;;;2.70;;
19456;SDS011;9867;48.094;11.478;2023-08-01T14:00:13;2.70;;;2.50;;
19456;SDS011;9867;48.094;11.478;2023-08-01T14:02:42;2.40;;;2.20;;
19456;SDS011;9867;48.094;11.478;2023-08-01T14:05:10;2.53;;;2.10;;
19456;SDS011;9867;48.094;11.478;2023-08-01T14:07:40;2.30;;;2.10;;
19456;SDS011;9867;48.094;11.478;2023-08-01T14:10:10;2.40;;;2.20;;
19456;SDS011;9867;48.094;11.478;2023-08-01T14:12:41;2.60;;;2.33;;
19456;SDS011;9867;48.094;11.478;2023-08-01T14:15:09;3.37;;;2.73;;
19456;SDS011;9867;48.094;11.478;2023-08-01T14:17:38;3.10;;;2.80;;
19456;SDS011;9867;48.094;11.478;2023-08-01T14:20:07;3.10;;;2.30;;
19456;SDS011;9867;48.094;11.478;2023-08-01T14:22:36;2.20;;;2.10;;
19456;SDS011;9867;48.094;11.478;2023-08-01T14:25:05;3.00;;;2.10;;
19456;SDS011;9867;48.094;11.478;2023-08-01T14:27:35;2.60;;;2.20;;
19456;SDS011;9867;48.094;11.478;2023-08-01T14:30:03;2.40;;;2.20;;
19456;SDS011;9867;48.094;11.478;2023-08-01T14:32:33;2.60;;;2.27;;
19456;SDS011;9867;48.094;11.478;2023-08-01T14:35:05;2.27;;;2.10;;
19456;SDS011;9867;48.094;11.478;2023-08-01T14:37:33;2.10;;;1.90;;
19456;SDS011;9867;48.094;11.478;2023-08-01T14:40:01;2.13;;;1.93;;
19456;SDS011;9867;48.094;11.478;2023-08-01T14:42:31;2.40;;;2.20;;
19456;SDS011;9867;48.094;11.478;2023-08-01T14:44:59;2.37;;;1.83;;
19456;SDS011;9867;48.094;11.478;2023-08-01T14:47:27;1.97;;;1.87;;
19456;SDS011;9867;48.094;11.478;2023-08-01T14:49:56;2.33;;;1.53;;
19456;SDS011;9867;48.094;11.478;2023-08-01T14:52:24;1.97;;;1.70;;
19456;SDS011;9867;48.094;11.478;2023-08-01T14:54:56;1.60;;;1.50;;
19456;SDS011;9867;48.094;11.478;2023-08-01T14:57:24;2.00;;;1.90;;
19456;SDS011;9867;48.094;11.478;2023-08-01T14:59:53;2.43;;;1.47;;
19456;SDS011;9867;48.094;11.478;2023-08-01T15:02:21;1.70;;;1.60;;